sensor_id;sensor_type;location;lat;lon;timestamp;P1;durP1;ratioP1;P2;durP2;ratioP2
2416;SDS011;1219;48.736;9.330;2022-09-20T00:00:16;6.77;;;5.47;;
2416;SDS011;1219;48.736;9.330;2022-09-20T00:02:42;6.30;;;5.73;;
2416;SDS011;1219;48.736;9.330;2022-09-20T00:05:08;6.67;;;5.30;;
2416;SDS011;1219;48.736;9.330;2022-09-20T00:07:34;5.93;;;5.23;;
2416;SDS011;1219;48.736;9.330;2022-09-20T00:10:00;5.43;;;4.90;;
2416;SDS011;1219;48.736;9.330;2022-09-20T00:12:25;5.57;;;5.13;;
2416;SDS011;1219;48.736;9.330;2022-09-20T00:14:51;6.17;;;5.50;;
2416;SDS011;1219;48.736;9.330;2022-09-20T00:17:17;5.60;;;5.10;;
2416;SDS011;1219;48.736;9.330;2022-09-20T00:19:43;6.30;;;5.70;;
2416;SDS011;1219;48.736;9.330;2022-09-20T00:22:09;7.53;;;6.00;;
2416;SDS011;1219;48.736;9.330;2022-09-20T00:24:35;5.30;;;4.90;;
2416;SDS011;1219;48.736;9.330;2022-09-20T00:27:02;7.30;;;5.50;;
2416;SDS011;1219;48.736;9.330;2022-09-20T00:29:28;7.27;;;5.87;;
2416;SDS011;1219;48.736;9.330;2022-09-20T00:31:54;8.70;;;5.87;;
2416;SDS011;1219;48.736;9.330;2022-09-20T00:34:20;8.83;;;5.93;;
2416;SDS011;1219;48.736;9.330;2022-09-20T00:37:04;13.57;;;6.10;;
2416;SDS011;1219;48.736;9.330;2022-09-20T00:39:30;7.00;;;5.70;;
2416;SDS011;1219;48.736;9.330;2022-09-20T00:41:56;11.23;;;6.10;;
2416;SDS011;1219;48.736;9.330;2022-09-20T00:44:38;6.20;;;5.70;;
2416;SDS011;1219;48.736;9.330;2022-09-20T00:47:07;6.60;;;6.10;;
2416;SDS011;1219;48.736;9.330;2022-09-20T00:49:37;5.93;;;5.43;;
2416;SDS011;1219;48.736;9.330;2022-09-20T00:52:03;8.13;;;6.13;;
2416;SDS011;1219;48.736;9.330;2022-09-20T00:54:29;6.47;;;5.87;;
2416;SDS011;1219;48.736;9.330;2022-09-20T00:56:56;7.93;;;6.40;;
2416;SDS011;1219;48.736;9.330;2022-09-20T00:59:32;9.50;;;6.73;;
2416;SDS011;1219;48.736;9.330;2022-09-20T01:02:05;6.50;;;5.67;;
2416;SDS011;1219;48.736;9.330;2022-09-20T01:04:34;7.27;;;5.80;;
2416;SDS011;1219;48.736;9.330;2022-09-20T01:07:03;6.63;;;6.03;;
2416;SDS011;1219;48.736;9.330;2022-09-20T01:09:30;7.90;;;6.73;;
2416;SDS011;1219;48.736;9.330;2022-09-20T01:11:56;7.73;;;6.03;;
2416;SDS011;1219;48.736;9.330;2022-09-20T01:14:23;9.33;;;6.77;;
2416;SDS011;1219;48.736;9.330;2022-09-20T01:16:50;7.47;;;6.13;;
2416;SDS011;1219;48.736;9.330;2022-09-20T01:19:18;7.17;;;6.47;;
2416;SDS011;1219;48.736;9.330;2022-09-20T01:21:48;8.23;;;7.00;;
2416;SDS011;1219;48.736;9.330;2022-09-20T01:26:52;10.07;;;6.33;;
2416;SDS011;1219;48.736;9.330;2022-09-20T01:32:09;10.80;;;7.03;;
2416;SDS011;1219;48.736;9.330;2022-09-20T01:34:36;8.20;;;6.10;;
2416;SDS011;1219;48.736;9.330;2022-09-20T01:42:14;8.00;;;7.20;;
2416;SDS011;1219;48.736;9.330;2022-09-20T01:44:59;7.80;;;7.00;;
2416;SDS011;1219;48.736;9.330;2022-09-20T01:47:30;6.73;;;5.50;;
2416;SDS011;1219;48.736;9.330;2022-09-20T01:50:02;10.37;;;6.67;;
2416;SDS011;1219;48.736;9.330;2022-09-20T01:52:41;8.30;;;6.60;;
2416;SDS011;1219;48.736;9.330;2022-09-20T01:57:51;6.70;;;6.10;;
2416;SDS011;1219;48.736;9.330;2022-09-20T02:05:52;7.23;;;5.30;;
2416;SDS011;1219;48.736;9.330;2022-09-20T02:11:20;5.20;;;4.80;;
2416;SDS011;1219;48.736;9.330;2022-09-20T02:13:53;4.67;;;4.27;;
2416;SDS011;1219;48.736;9.330;2022-09-20T02:16:39;5.20;;;4.60;;
2416;SDS011;1219;48.736;9.330;2022-09-20T02:24:38;4.83;;;4.00;;
2416;SDS011;1219;48.736;9.330;2022-09-20T02:27:08;4.67;;;4.27;;
2416;SDS011;1219;48.736;9.330;2022-09-20T02:32:21;3.77;;;3.50;;
2416;SDS011;1219;48.736;9.330;2022-09-20T02:43:06;4.50;;;3.53;;
2416;SDS011;1219;48.736;9.330;2022-09-20T02:48:19;4.40;;;3.43;;
2416;SDS011;1219;48.736;9.330;2022-09-20T02:50:50;3.97;;;3.67;;
2416;SDS011;1219;48.736;9.330;2022-09-20T02:55:46;5.87;;;5.03;;
2416;SDS011;1219;48.736;9.330;2022-09-20T03:00:54;5.20;;;3.83;;
2416;SDS011;1219;48.736;9.330;2022-09-20T03:03:36;4.50;;;4.10;;
2416;SDS011;1219;48.736;9.330;2022-09-20T03:06:06;6.47;;;4.20;;
2416;SDS011;1219;48.736;9.330;2022-09-20T03:08:37;5.60;;;4.13;;
2416;SDS011;1219;48.736;9.330;2022-09-20T03:18:42;3.80;;;3.13;;
2416;SDS011;1219;48.736;9.330;2022-09-20T03:21:20;5.07;;;3.50;;
2416;SDS011;1219;48.736;9.330;2022-09-20T03:23:56;4.77;;;3.90;;
2416;SDS011;1219;48.736;9.330;2022-09-20T03:28:58;3.90;;;3.47;;
2416;SDS011;1219;48.736;9.330;2022-09-20T03:34:14;3.80;;;3.50;;
2416;SDS011;1219;48.736;9.330;2022-09-20T03:36:51;3.50;;;3.30;;
2416;SDS011;1219;48.736;9.330;2022-09-20T03:41:50;4.90;;;4.40;;
2416;SDS011;1219;48.736;9.330;2022-09-20T03:44:41;4.70;;;3.80;;
2416;SDS011;1219;48.736;9.330;2022-09-20T03:50:02;3.80;;;3.53;;
2416;SDS011;1219;48.736;9.330;2022-09-20T03:55:26;8.77;;;4.10;;
2416;SDS011;1219;48.736;9.330;2022-09-20T04:00:30;4.00;;;3.70;;
2416;SDS011;1219;48.736;9.330;2022-09-20T04:03:13;4.40;;;4.00;;
2416;SDS011;1219;48.736;9.330;2022-09-20T04:10:54;4.43;;;4.03;;
2416;SDS011;1219;48.736;9.330;2022-09-20T04:13:27;5.90;;;4.43;;
2416;SDS011;1219;48.736;9.330;2022-09-20T04:16:04;5.90;;;4.47;;
2416;SDS011;1219;48.736;9.330;2022-09-20T04:18:52;4.10;;;3.70;;
2416;SDS011;1219;48.736;9.330;2022-09-20T04:21:37;5.13;;;4.60;;
2416;SDS011;1219;48.736;9.330;2022-09-20T04:24:08;5.07;;;4.67;;
2416;SDS011;1219;48.736;9.330;2022-09-20T04:26:39;4.50;;;4.10;;
2416;SDS011;1219;48.736;9.330;2022-09-20T04:29:18;4.87;;;4.37;;
2416;SDS011;1219;48.736;9.330;2022-09-20T04:32:20;4.70;;;3.50;;
2416;SDS011;1219;48.736;9.330;2022-09-20T04:34:50;4.80;;;4.13;;
2416;SDS011;1219;48.736;9.330;2022-09-20T04:37:38;5.60;;;3.70;;
2416;SDS011;1219;48.736;9.330;2022-09-20T04:40:53;8.23;;;4.20;;
2416;SDS011;1219;48.736;9.330;2022-09-20T04:43:02;3.90;;;3.60;;
2416;SDS011;1219;48.736;9.330;2022-09-20T04:48:23;6.97;;;3.97;;
2416;SDS011;1219;48.736;9.330;2022-09-20T04:58:47;5.63;;;5.17;;
2416;SDS011;1219;48.736;9.330;2022-09-20T05:01:21;6.20;;;4.70;;
2416;SDS011;1219;48.736;9.330;2022-09-20T05:11:39;8.87;;;4.90;;
2416;SDS011;1219;48.736;9.330;2022-09-20T05:19:50;4.50;;;4.10;;
2416;SDS011;1219;48.736;9.330;2022-09-20T05:27:35;6.87;;;4.33;;
2416;SDS011;1219;48.736;9.330;2022-09-20T05:30:10;6.30;;;3.67;;
2416;SDS011;1219;48.736;9.330;2022-09-20T05:35:18;3.70;;;3.40;;
2416;SDS011;1219;48.736;9.330;2022-09-20T05:37:54;6.13;;;4.60;;
2416;SDS011;1219;48.736;9.330;2022-09-20T05:40:30;6.17;;;5.27;;
2416;SDS011;1219;48.736;9.330;2022-09-20T05:50:43;5.83;;;4.00;;
2416;SDS011;1219;48.736;9.330;2022-09-20T05:58:38;4.33;;;4.03;;
2416;SDS011;1219;48.736;9.330;2022-09-20T06:04:21;4.37;;;4.00;;
2416;SDS011;1219;48.736;9.330;2022-09-20T06:12:04;5.67;;;4.63;;
2416;SDS011;1219;48.736;9.330;2022-09-20T06:17:26;8.00;;;4.70;;
2416;SDS011;1219;48.736;9.330;2022-09-20T06:19:59;5.67;;;4.47;;
2416;SDS011;1219;48.736;9.330;2022-09-20T06:22:31;5.03;;;3.37;;
2416;SDS011;1219;48.736;9.330;2022-09-20T06:27:52;6.03;;;4.70;;
2416;SDS011;1219;48.736;9.330;2022-09-20T06:30:26;5.60;;;4.37;;
2416;SDS011;1219;48.736;9.330;2022-09-20T06:32:54;5.30;;;4.30;;
2416;SDS011;1219;48.736;9.330;2022-09-20T06:35:21;7.47;;;4.43;;
2416;SDS011;1219;48.736;9.330;2022-09-20T06:38:35;5.40;;;4.40;;
2416;SDS011;1219;48.736;9.330;2022-09-20T06:40:56;4.90;;;3.83;;
2416;SDS011;1219;48.736;9.330;2022-09-20T06:43:41;4.93;;;3.70;;
2416;SDS011;1219;48.736;9.330;2022-09-20T06:46:07;4.80;;;4.20;;
2416;SDS011;1219;48.736;9.330;2022-09-20T06:48:34;4.70;;;3.80;;
2416;SDS011;1219;48.736;9.330;2022-09-20T06:51:03;4.57;;;4.17;;
2416;SDS011;1219;48.736;9.330;2022-09-20T06:53:30;4.30;;;3.80;;
2416;SDS011;1219;48.736;9.330;2022-09-20T06:55:57;4.40;;;3.70;;
2416;SDS011;1219;48.736;9.330;2022-09-20T06:58:23;4.33;;;4.03;;
2416;SDS011;1219;48.736;9.330;2022-09-20T07:00:50;4.63;;;4.20;;
2416;SDS011;1219;48.736;9.330;2022-09-20T07:03:17;5.20;;;4.60;;
2416;SDS011;1219;48.736;9.330;2022-09-20T07:05:43;6.23;;;4.37;;
2416;SDS011;1219;48.736;9.330;2022-09-20T07:08:10;5.60;;;4.00;;
2416;SDS011;1219;48.736;9.330;2022-09-20T07:10:36;4.17;;;3.43;;
2416;SDS011;1219;48.736;9.330;2022-09-20T07:13:03;5.10;;;3.97;;
2416;SDS011;1219;48.736;9.330;2022-09-20T07:15:30;7.50;;;4.27;;
2416;SDS011;1219;48.736;9.330;2022-09-20T07:17:56;6.17;;;3.67;;
2416;SDS011;1219;48.736;9.330;2022-09-20T07:20:24;6.17;;;4.57;;
2416;SDS011;1219;48.736;9.330;2022-09-20T07:22:50;4.73;;;4.33;;
2416;SDS011;1219;48.736;9.330;2022-09-20T07:25:17;5.87;;;4.43;;
2416;SDS011;1219;48.736;9.330;2022-09-20T07:27:44;10.67;;;4.77;;
2416;SDS011;1219;48.736;9.330;2022-09-20T07:30:10;5.83;;;4.50;;
2416;SDS011;1219;48.736;9.330;2022-09-20T07:32:37;5.20;;;4.17;;
2416;SDS011;1219;48.736;9.330;2022-09-20T07:35:05;4.40;;;4.07;;
2416;SDS011;1219;48.736;9.330;2022-09-20T07:37:31;4.73;;;4.30;;
2416;SDS011;1219;48.736;9.330;2022-09-20T07:39:57;7.70;;;5.10;;
2416;SDS011;1219;48.736;9.330;2022-09-20T07:42:23;7.83;;;4.10;;
2416;SDS011;1219;48.736;9.330;2022-09-20T07:44:49;5.00;;;4.13;;
2416;SDS011;1219;48.736;9.330;2022-09-20T07:47:17;5.93;;;4.40;;
2416;SDS011;1219;48.736;9.330;2022-09-20T07:49:45;7.20;;;4.30;;
2416;SDS011;1219;48.736;9.330;2022-09-20T07:52:10;7.90;;;3.97;;
2416;SDS011;1219;48.736;9.330;2022-09-20T07:54:38;4.57;;;4.17;;
2416;SDS011;1219;48.736;9.330;2022-09-20T07:57:04;7.13;;;6.40;;
2416;SDS011;1219;48.736;9.330;2022-09-20T07:59:30;4.93;;;4.53;;
2416;SDS011;1219;48.736;9.330;2022-09-20T08:01:56;5.40;;;5.00;;
2416;SDS011;1219;48.736;9.330;2022-09-20T08:04:24;6.97;;;4.90;;
2416;SDS011;1219;48.736;9.330;2022-09-20T08:06:50;7.83;;;5.17;;
2416;SDS011;1219;48.736;9.330;2022-09-20T08:09:16;4.87;;;4.53;;
2416;SDS011;1219;48.736;9.330;2022-09-20T08:11:43;5.00;;;4.60;;
2416;SDS011;1219;48.736;9.330;2022-09-20T08:14:14;5.43;;;4.80;;
2416;SDS011;1219;48.736;9.330;2022-09-20T08:16:41;6.40;;;4.57;;
2416;SDS011;1219;48.736;9.330;2022-09-20T08:19:08;12.30;;;4.60;;
2416;SDS011;1219;48.736;9.330;2022-09-20T08:21:38;5.20;;;4.77;;
2416;SDS011;1219;48.736;9.330;2022-09-20T08:24:05;8.70;;;5.40;;
2416;SDS011;1219;48.736;9.330;2022-09-20T08:26:31;10.23;;;4.60;;
2416;SDS011;1219;48.736;9.330;2022-09-20T08:28:59;7.00;;;4.30;;
2416;SDS011;1219;48.736;9.330;2022-09-20T08:31:28;4.80;;;4.40;;
2416;SDS011;1219;48.736;9.330;2022-09-20T08:34:01;4.07;;;3.70;;
2416;SDS011;1219;48.736;9.330;2022-09-20T08:36:29;5.57;;;3.87;;
2416;SDS011;1219;48.736;9.330;2022-09-20T08:38:55;5.13;;;3.50;;
2416;SDS011;1219;48.736;9.330;2022-09-20T08:41:35;5.50;;;3.00;;
2416;SDS011;1219;48.736;9.330;2022-09-20T08:44:23;7.43;;;3.77;;
2416;SDS011;1219;48.736;9.330;2022-09-20T08:47:04;2.53;;;2.33;;
2416;SDS011;1219;48.736;9.330;2022-09-20T08:49:31;9.77;;;2.30;;
2416;SDS011;1219;48.736;9.330;2022-09-20T08:51:58;4.13;;;2.30;;
2416;SDS011;1219;48.736;9.330;2022-09-20T08:54:26;7.37;;;2.70;;
2416;SDS011;1219;48.736;9.330;2022-09-20T08:56:55;3.83;;;2.10;;
2416;SDS011;1219;48.736;9.330;2022-09-20T08:59:21;7.20;;;2.60;;
2416;SDS011;1219;48.736;9.330;2022-09-20T09:01:49;6.10;;;2.00;;
2416;SDS011;1219;48.736;9.330;2022-09-20T09:06:41;5.27;;;1.77;;
2416;SDS011;1219;48.736;9.330;2022-09-20T09:09:11;8.07;;;2.07;;
2416;SDS011;1219;48.736;9.330;2022-09-20T09:11:39;3.10;;;2.00;;
2416;SDS011;1219;48.736;9.330;2022-09-20T09:14:06;2.20;;;1.80;;
2416;SDS011;1219;48.736;9.330;2022-09-20T09:16:52;3.50;;;2.27;;
2416;SDS011;1219;48.736;9.330;2022-09-20T09:19:28;3.93;;;1.90;;
2416;SDS011;1219;48.736;9.330;2022-09-20T09:21:55;3.07;;;1.50;;
2416;SDS011;1219;48.736;9.330;2022-09-20T09:24:21;4.23;;;1.80;;
2416;SDS011;1219;48.736;9.330;2022-09-20T09:26:49;1.83;;;1.70;;
2416;SDS011;1219;48.736;9.330;2022-09-20T09:29:29;5.33;;;2.43;;
2416;SDS011;1219;48.736;9.330;2022-09-20T09:31:55;5.93;;;2.30;;
2416;SDS011;1219;48.736;9.330;2022-09-20T09:34:25;2.97;;;1.70;;
2416;SDS011;1219;48.736;9.330;2022-09-20T09:36:51;3.83;;;1.80;;
2416;SDS011;1219;48.736;9.330;2022-09-20T09:39:23;5.00;;;2.10;;
2416;SDS011;1219;48.736;9.330;2022-09-20T09:41:49;3.80;;;2.17;;
2416;SDS011;1219;48.736;9.330;2022-09-20T09:44:26;2.50;;;1.90;;
2416;SDS011;1219;48.736;9.330;2022-09-20T09:46:52;4.37;;;2.03;;
2416;SDS011;1219;48.736;9.330;2022-09-20T09:49:19;5.97;;;1.97;;
2416;SDS011;1219;48.736;9.330;2022-09-20T09:54:30;5.53;;;1.77;;
2416;SDS011;1219;48.736;9.330;2022-09-20T10:02:06;3.20;;;2.23;;
2416;SDS011;1219;48.736;9.330;2022-09-20T10:04:51;4.30;;;2.03;;
2416;SDS011;1219;48.736;9.330;2022-09-20T10:12:20;3.43;;;1.73;;
2416;SDS011;1219;48.736;9.330;2022-09-20T10:14:53;3.17;;;1.60;;
2416;SDS011;1219;48.736;9.330;2022-09-20T10:17:24;4.40;;;1.60;;
2416;SDS011;1219;48.736;9.330;2022-09-20T10:27:31;1.50;;;1.40;;
2416;SDS011;1219;48.736;9.330;2022-09-20T10:32:35;2.83;;;1.50;;
2416;SDS011;1219;48.736;9.330;2022-09-20T10:35:12;1.80;;;1.70;;
2416;SDS011;1219;48.736;9.330;2022-09-20T10:45:35;6.13;;;1.50;;
2416;SDS011;1219;48.736;9.330;2022-09-20T10:50:53;5.10;;;1.40;;
2416;SDS011;1219;48.736;9.330;2022-09-20T10:59:08;2.70;;;1.40;;
2416;SDS011;1219;48.736;9.330;2022-09-20T11:01:59;4.90;;;1.90;;
2416;SDS011;1219;48.736;9.330;2022-09-20T11:09:22;3.40;;;2.23;;
2416;SDS011;1219;48.736;9.330;2022-09-20T11:11:50;4.73;;;2.03;;
2416;SDS011;1219;48.736;9.330;2022-09-20T11:14:23;2.33;;;1.73;;
2416;SDS011;1219;48.736;9.330;2022-09-20T11:16:55;4.63;;;1.70;;
2416;SDS011;1219;48.736;9.330;2022-09-20T11:19:41;2.97;;;1.70;;
2416;SDS011;1219;48.736;9.330;2022-09-20T11:22:17;12.00;;;2.60;;
2416;SDS011;1219;48.736;9.330;2022-09-20T11:27:14;4.67;;;1.70;;
2416;SDS011;1219;48.736;9.330;2022-09-20T11:32:24;13.87;;;2.23;;
2416;SDS011;1219;48.736;9.330;2022-09-20T11:37:39;9.03;;;1.90;;
2416;SDS011;1219;48.736;9.330;2022-09-20T11:40:15;14.47;;;2.40;;
2416;SDS011;1219;48.736;9.330;2022-09-20T11:42:42;8.40;;;1.80;;
2416;SDS011;1219;48.736;9.330;2022-09-20T11:45:12;15.67;;;2.27;;
2416;SDS011;1219;48.736;9.330;2022-09-20T11:47:42;3.53;;;1.53;;
2416;SDS011;1219;48.736;9.330;2022-09-20T11:58:05;4.70;;;1.70;;
2416;SDS011;1219;48.736;9.330;2022-09-20T12:00:32;3.13;;;1.67;;
2416;SDS011;1219;48.736;9.330;2022-09-20T12:02:59;3.73;;;2.07;;
2416;SDS011;1219;48.736;9.330;2022-09-20T12:05:35;3.77;;;1.80;;
2416;SDS011;1219;48.736;9.330;2022-09-20T12:08:06;4.63;;;1.90;;
2416;SDS011;1219;48.736;9.330;2022-09-20T12:10:36;4.37;;;2.20;;
2416;SDS011;1219;48.736;9.330;2022-09-20T12:13:04;2.80;;;1.93;;
2416;SDS011;1219;48.736;9.330;2022-09-20T12:15:32;5.07;;;1.60;;
2416;SDS011;1219;48.736;9.330;2022-09-20T12:25:58;5.63;;;1.63;;
2416;SDS011;1219;48.736;9.330;2022-09-20T12:28:34;1.87;;;1.67;;
2416;SDS011;1219;48.736;9.330;2022-09-20T12:34:01;4.87;;;2.10;;
2416;SDS011;1219;48.736;9.330;2022-09-20T12:36:29;4.30;;;1.80;;
2416;SDS011;1219;48.736;9.330;2022-09-20T12:41:47;3.83;;;1.40;;
2416;SDS011;1219;48.736;9.330;2022-09-20T12:46:56;4.40;;;1.50;;
2416;SDS011;1219;48.736;9.330;2022-09-20T13:00:31;3.47;;;1.90;;
2416;SDS011;1219;48.736;9.330;2022-09-20T13:03:00;2.13;;;1.50;;
2416;SDS011;1219;48.736;9.330;2022-09-20T13:05:37;2.17;;;1.50;;
2416;SDS011;1219;48.736;9.330;2022-09-20T13:08:08;4.23;;;1.90;;
2416;SDS011;1219;48.736;9.330;2022-09-20T13:10:42;3.27;;;1.53;;
2416;SDS011;1219;48.736;9.330;2022-09-20T13:13:21;2.53;;;1.47;;
2416;SDS011;1219;48.736;9.330;2022-09-20T13:15:50;3.30;;;1.67;;
2416;SDS011;1219;48.736;9.330;2022-09-20T13:18:17;3.00;;;1.73;;
2416;SDS011;1219;48.736;9.330;2022-09-20T13:20:44;3.47;;;1.60;;
2416;SDS011;1219;48.736;9.330;2022-09-20T13:23:43;5.63;;;1.60;;
2416;SDS011;1219;48.736;9.330;2022-09-20T13:26:04;1.77;;;1.60;;
2416;SDS011;1219;48.736;9.330;2022-09-20T13:28:39;4.37;;;1.40;;
2416;SDS011;1219;48.736;9.330;2022-09-20T13:33:46;3.03;;;1.80;;
2416;SDS011;1219;48.736;9.330;2022-09-20T13:36:12;2.50;;;1.40;;
2416;SDS011;1219;48.736;9.330;2022-09-20T13:38:38;4.30;;;1.40;;
2416;SDS011;1219;48.736;9.330;2022-09-20T13:41:06;1.73;;;1.30;;
2416;SDS011;1219;48.736;9.330;2022-09-20T13:43:46;4.30;;;1.67;;
2416;SDS011;1219;48.736;9.330;2022-09-20T13:46:21;3.00;;;1.47;;
2416;SDS011;1219;48.736;9.330;2022-09-20T13:48:47;1.40;;;1.30;;
2416;SDS011;1219;48.736;9.330;2022-09-20T13:51:17;3.57;;;1.53;;
2416;SDS011;1219;48.736;9.330;2022-09-20T13:53:44;4.23;;;1.33;;
2416;SDS011;1219;48.736;9.330;2022-09-20T13:56:21;4.00;;;1.33;;
2416;SDS011;1219;48.736;9.330;2022-09-20T13:58:48;5.73;;;1.87;;
2416;SDS011;1219;48.736;9.330;2022-09-20T14:01:31;3.73;;;1.60;;
2416;SDS011;1219;48.736;9.330;2022-09-20T14:04:00;4.10;;;1.57;;
2416;SDS011;1219;48.736;9.330;2022-09-20T14:06:27;2.13;;;1.40;;
2416;SDS011;1219;48.736;9.330;2022-09-20T14:08:54;3.00;;;1.90;;
2416;SDS011;1219;48.736;9.330;2022-09-20T14:11:29;1.67;;;1.50;;
2416;SDS011;1219;48.736;9.330;2022-09-20T14:13:59;2.23;;;1.60;;
2416;SDS011;1219;48.736;9.330;2022-09-20T14:16:29;6.33;;;1.60;;
2416;SDS011;1219;48.736;9.330;2022-09-20T14:18:56;2.43;;;2.10;;
2416;SDS011;1219;48.736;9.330;2022-09-20T14:21:23;7.13;;;1.87;;
2416;SDS011;1219;48.736;9.330;2022-09-20T14:23:57;2.37;;;1.97;;
2416;SDS011;1219;48.736;9.330;2022-09-20T14:26:36;2.23;;;1.90;;
2416;SDS011;1219;48.736;9.330;2022-09-20T14:31:47;2.07;;;1.87;;
2416;SDS011;1219;48.736;9.330;2022-09-20T14:34:13;2.63;;;1.90;;
2416;SDS011;1219;48.736;9.330;2022-09-20T14:36:39;3.73;;;2.17;;
2416;SDS011;1219;48.736;9.330;2022-09-20T14:39:09;2.10;;;2.00;;
2416;SDS011;1219;48.736;9.330;2022-09-20T14:41:38;2.77;;;2.10;;
2416;SDS011;1219;48.736;9.330;2022-09-20T14:44:15;2.77;;;2.00;;
2416;SDS011;1219;48.736;9.330;2022-09-20T14:46:43;3.00;;;2.43;;
2416;SDS011;1219;48.736;9.330;2022-09-20T14:52:20;3.87;;;2.23;;
2416;SDS011;1219;48.736;9.330;2022-09-20T14:54:39;2.60;;;1.90;;
2416;SDS011;1219;48.736;9.330;2022-09-20T14:57:05;2.27;;;1.90;;
2416;SDS011;1219;48.736;9.330;2022-09-20T14:59:37;1.70;;;1.60;;
2416;SDS011;1219;48.736;9.330;2022-09-20T15:04:34;1.87;;;1.73;;
2416;SDS011;1219;48.736;9.330;2022-09-20T15:07:02;2.13;;;1.93;;
2416;SDS011;1219;48.736;9.330;2022-09-20T15:09:29;3.13;;;2.27;;
2416;SDS011;1219;48.736;9.330;2022-09-20T15:12:05;2.50;;;1.90;;
2416;SDS011;1219;48.736;9.330;2022-09-20T15:14:31;2.60;;;2.00;;
2416;SDS011;1219;48.736;9.330;2022-09-20T15:16:58;3.13;;;2.20;;
2416;SDS011;1219;48.736;9.330;2022-09-20T15:19:27;2.57;;;2.30;;
2416;SDS011;1219;48.736;9.330;2022-09-20T15:21:54;2.40;;;2.20;;
2416;SDS011;1219;48.736;9.330;2022-09-20T15:24:22;7.73;;;2.50;;
2416;SDS011;1219;48.736;9.330;2022-09-20T15:26:47;2.30;;;2.00;;
2416;SDS011;1219;48.736;9.330;2022-09-20T15:29:14;5.67;;;2.20;;
2416;SDS011;1219;48.736;9.330;2022-09-20T15:31:41;4.07;;;1.90;;
2416;SDS011;1219;48.736;9.330;2022-09-20T15:34:07;3.20;;;2.00;;
2416;SDS011;1219;48.736;9.330;2022-09-20T15:36:34;3.30;;;2.13;;
2416;SDS011;1219;48.736;9.330;2022-09-20T15:39:00;6.40;;;2.10;;
2416;SDS011;1219;48.736;9.330;2022-09-20T15:41:26;2.20;;;2.00;;
2416;SDS011;1219;48.736;9.330;2022-09-20T15:43:52;4.93;;;2.20;;
2416;SDS011;1219;48.736;9.330;2022-09-20T15:46:22;3.40;;;2.20;;
2416;SDS011;1219;48.736;9.330;2022-09-20T15:48:50;1.70;;;1.60;;
2416;SDS011;1219;48.736;9.330;2022-09-20T15:51:16;3.30;;;2.00;;
2416;SDS011;1219;48.736;9.330;2022-09-20T15:53:46;5.03;;;2.40;;
2416;SDS011;1219;48.736;9.330;2022-09-20T15:56:14;3.07;;;2.10;;
2416;SDS011;1219;48.736;9.330;2022-09-20T15:58:44;2.43;;;2.07;;
2416;SDS011;1219;48.736;9.330;2022-09-20T16:01:11;6.10;;;2.73;;
2416;SDS011;1219;48.736;9.330;2022-09-20T16:03:39;2.70;;;2.13;;
2416;SDS011;1219;48.736;9.330;2022-09-20T16:06:05;5.30;;;2.00;;
2416;SDS011;1219;48.736;9.330;2022-09-20T16:08:36;2.13;;;1.87;;
2416;SDS011;1219;48.736;9.330;2022-09-20T16:11:02;2.10;;;1.90;;
2416;SDS011;1219;48.736;9.330;2022-09-20T16:13:29;3.40;;;1.90;;
2416;SDS011;1219;48.736;9.330;2022-09-20T16:15:58;5.10;;;2.00;;
2416;SDS011;1219;48.736;9.330;2022-09-20T16:18:25;1.80;;;1.70;;
2416;SDS011;1219;48.736;9.330;2022-09-20T16:21:10;4.57;;;2.80;;
2416;SDS011;1219;48.736;9.330;2022-09-20T16:23:40;2.50;;;2.30;;
2416;SDS011;1219;48.736;9.330;2022-09-20T16:26:08;11.60;;;9.37;;
2416;SDS011;1219;48.736;9.330;2022-09-20T16:28:37;8.83;;;8.03;;
2416;SDS011;1219;48.736;9.330;2022-09-20T16:31:03;6.70;;;6.30;;
2416;SDS011;1219;48.736;9.330;2022-09-20T16:33:29;6.50;;;4.07;;
2416;SDS011;1219;48.736;9.330;2022-09-20T16:35:57;4.67;;;2.93;;
2416;SDS011;1219;48.736;9.330;2022-09-20T16:38:23;3.37;;;2.00;;
2416;SDS011;1219;48.736;9.330;2022-09-20T16:40:49;2.30;;;2.03;;
2416;SDS011;1219;48.736;9.330;2022-09-20T16:43:16;2.33;;;2.13;;
2416;SDS011;1219;48.736;9.330;2022-09-20T16:45:47;2.10;;;2.00;;
2416;SDS011;1219;48.736;9.330;2022-09-20T16:48:14;2.10;;;2.00;;
2416;SDS011;1219;48.736;9.330;2022-09-20T16:50:40;2.23;;;2.00;;
2416;SDS011;1219;48.736;9.330;2022-09-20T16:53:09;2.37;;;1.80;;
2416;SDS011;1219;48.736;9.330;2022-09-20T16:55:35;2.53;;;2.00;;
2416;SDS011;1219;48.736;9.330;2022-09-20T16:58:01;3.67;;;1.60;;
2416;SDS011;1219;48.736;9.330;2022-09-20T17:00:27;3.87;;;2.30;;
2416;SDS011;1219;48.736;9.330;2022-09-20T17:02:55;2.90;;;2.60;;
2416;SDS011;1219;48.736;9.330;2022-09-20T17:05:21;4.53;;;3.67;;
2416;SDS011;1219;48.736;9.330;2022-09-20T17:07:47;7.17;;;6.60;;
2416;SDS011;1219;48.736;9.330;2022-09-20T17:10:13;9.60;;;8.57;;
2416;SDS011;1219;48.736;9.330;2022-09-20T17:12:39;8.37;;;7.77;;
2416;SDS011;1219;48.736;9.330;2022-09-20T17:15:10;10.60;;;9.57;;
2416;SDS011;1219;48.736;9.330;2022-09-20T17:17:38;18.70;;;17.00;;
2416;SDS011;1219;48.736;9.330;2022-09-20T17:20:04;35.10;;;27.57;;
2416;SDS011;1219;48.736;9.330;2022-09-20T17:22:31;61.07;;;44.80;;
2416;SDS011;1219;48.736;9.330;2022-09-20T17:24:57;54.40;;;41.80;;
2416;SDS011;1219;48.736;9.330;2022-09-20T17:27:23;29.50;;;25.47;;
2416;SDS011;1219;48.736;9.330;2022-09-20T17:29:49;22.93;;;17.40;;
2416;SDS011;1219;48.736;9.330;2022-09-20T17:32:15;14.30;;;12.80;;
2416;SDS011;1219;48.736;9.330;2022-09-20T17:34:43;12.70;;;11.40;;
2416;SDS011;1219;48.736;9.330;2022-09-20T17:37:09;10.07;;;8.97;;
2416;SDS011;1219;48.736;9.330;2022-09-20T17:39:35;9.20;;;8.30;;
2416;SDS011;1219;48.736;9.330;2022-09-20T17:42:01;7.30;;;6.60;;
2416;SDS011;1219;48.736;9.330;2022-09-20T17:44:27;8.60;;;6.83;;
2416;SDS011;1219;48.736;9.330;2022-09-20T17:46:52;9.20;;;7.30;;
2416;SDS011;1219;48.736;9.330;2022-09-20T17:49:19;7.37;;;6.73;;
2416;SDS011;1219;48.736;9.330;2022-09-20T17:51:47;7.60;;;6.97;;
2416;SDS011;1219;48.736;9.330;2022-09-20T17:54:13;7.67;;;7.07;;
2416;SDS011;1219;48.736;9.330;2022-09-20T17:56:43;6.97;;;6.37;;
2416;SDS011;1219;48.736;9.330;2022-09-20T17:59:10;6.17;;;5.60;;
2416;SDS011;1219;48.736;9.330;2022-09-20T18:01:37;8.50;;;5.70;;
2416;SDS011;1219;48.736;9.330;2022-09-20T18:04:04;5.90;;;5.50;;
2416;SDS011;1219;48.736;9.330;2022-09-20T18:06:31;6.27;;;5.73;;
2416;SDS011;1219;48.736;9.330;2022-09-20T18:08:58;5.53;;;5.07;;
2416;SDS011;1219;48.736;9.330;2022-09-20T18:11:29;5.87;;;5.47;;
2416;SDS011;1219;48.736;9.330;2022-09-20T18:13:59;4.23;;;3.83;;
2416;SDS011;1219;48.736;9.330;2022-09-20T18:16:25;5.37;;;4.37;;
2416;SDS011;1219;48.736;9.330;2022-09-20T18:18:51;5.33;;;4.90;;
2416;SDS011;1219;48.736;9.330;2022-09-20T18:21:18;5.93;;;5.27;;
2416;SDS011;1219;48.736;9.330;2022-09-20T18:23:46;5.23;;;4.70;;
2416;SDS011;1219;48.736;9.330;2022-09-20T18:26:13;5.60;;;5.10;;
2416;SDS011;1219;48.736;9.330;2022-09-20T18:28:52;8.60;;;6.47;;
2416;SDS011;1219;48.736;9.330;2022-09-20T18:31:19;9.70;;;8.70;;
2416;SDS011;1219;48.736;9.330;2022-09-20T18:33:45;11.93;;;10.90;;
2416;SDS011;1219;48.736;9.330;2022-09-20T18:36:11;11.53;;;10.60;;
2416;SDS011;1219;48.736;9.330;2022-09-20T18:38:41;8.23;;;6.97;;
2416;SDS011;1219;48.736;9.330;2022-09-20T18:41:08;9.20;;;8.27;;
2416;SDS011;1219;48.736;9.330;2022-09-20T18:43:34;10.80;;;9.80;;
2416;SDS011;1219;48.736;9.330;2022-09-20T18:46:00;12.33;;;11.17;;
2416;SDS011;1219;48.736;9.330;2022-09-20T18:48:31;10.20;;;9.20;;
2416;SDS011;1219;48.736;9.330;2022-09-20T18:51:02;10.37;;;6.80;;
2416;SDS011;1219;48.736;9.330;2022-09-20T18:53:29;9.20;;;7.00;;
2416;SDS011;1219;48.736;9.330;2022-09-20T18:56:03;6.07;;;5.60;;
2416;SDS011;1219;48.736;9.330;2022-09-20T18:58:30;10.30;;;7.20;;
2416;SDS011;1219;48.736;9.330;2022-09-20T19:06:09;10.77;;;9.20;;
2416;SDS011;1219;48.736;9.330;2022-09-20T19:08:38;10.07;;;8.80;;
2416;SDS011;1219;48.736;9.330;2022-09-20T19:11:13;12.60;;;7.50;;
2416;SDS011;1219;48.736;9.330;2022-09-20T19:13:46;8.97;;;8.17;;
2416;SDS011;1219;48.736;9.330;2022-09-20T19:16:15;7.67;;;7.07;;
2416;SDS011;1219;48.736;9.330;2022-09-20T19:21:30;7.57;;;6.33;;
2416;SDS011;1219;48.736;9.330;2022-09-20T19:26:33;8.33;;;7.63;;
2416;SDS011;1219;48.736;9.330;2022-09-20T19:29:02;7.63;;;6.90;;
2416;SDS011;1219;48.736;9.330;2022-09-20T19:31:30;6.47;;;5.80;;
2416;SDS011;1219;48.736;9.330;2022-09-20T19:33:57;13.13;;;6.10;;
2416;SDS011;1219;48.736;9.330;2022-09-20T19:36:25;8.67;;;5.80;;